sensor_id;sensor_type;location;lat;lon;timestamp;P1;durP1;ratioP1;P2;durP2;ratioP2
35777;SDS011;21899;42.662;23.316;2023-11-21T00:02:11;31.65;;;13.27;;
35777;SDS011;21899;42.662;23.316;2023-11-21T00:04:37;34.03;;;15.15;;
35777;SDS011;21899;42.662;23.316;2023-11-21T00:07:02;27.65;;;13.75;;
35777;SDS011;21899;42.662;23.316;2023-11-21T00:09:28;28.48;;;14.45;;
35777;SDS011;21899;42.662;23.316;2023-11-21T00:11:54;31.55;;;14.70;;
35777;SDS011;21899;42.662;23.316;2023-11-21T00:14:19;35.53;;;14.15;;
35777;SDS011;21899;42.662;23.316;2023-11-21T00:16:44;33.28;;;14.82;;
35777;SDS011;21899;42.662;23.316;2023-11-21T00:19:10;29.75;;;14.30;;
35777;SDS011;21899;42.662;23.316;2023-11-21T00:21:36;26.58;;;13.55;;
35777;SDS011;21899;42.662;23.316;2023-11-21T00:24:02;29.88;;;15.25;;
35777;SDS011;21899;42.662;23.316;2023-11-21T00:26:28;26.73;;;13.02;;
35777;SDS011;21899;42.662;23.316;2023-11-21T00:28:53;22.27;;;13.63;;
35777;SDS011;21899;42.662;23.316;2023-11-21T00:31:19;28.88;;;13.50;;
35777;SDS011;21899;42.662;23.316;2023-11-21T00:33:45;30.50;;;13.68;;
35777;SDS011;21899;42.662;23.316;2023-11-21T00:36:10;28.50;;;14.02;;
35777;SDS011;21899;42.662;23.316;2023-11-21T00:38:36;30.35;;;14.38;;
35777;SDS011;21899;42.662;23.316;2023-11-21T00:41:04;30.85;;;15.73;;
35777;SDS011;21899;42.662;23.316;2023-11-21T00:43:31;31.30;;;15.27;;
35777;SDS011;21899;42.662;23.316;2023-11-21T00:45:58;34.85;;;15.65;;
35777;SDS011;21899;42.662;23.316;2023-11-21T00:48:24;29.83;;;15.05;;
35777;SDS011;21899;42.662;23.316;2023-11-21T00:50:49;30.20;;;15.98;;
35777;SDS011;21899;42.662;23.316;2023-11-21T00:53:15;30.50;;;15.23;;
35777;SDS011;21899;42.662;23.316;2023-11-21T00:55:40;33.90;;;15.65;;
35777;SDS011;21899;42.662;23.316;2023-11-21T00:58:06;30.02;;;14.50;;
35777;SDS011;21899;42.662;23.316;2023-11-21T01:00:32;36.42;;;15.55;;
35777;SDS011;21899;42.662;23.316;2023-11-21T01:02:58;28.88;;;15.63;;
35777;SDS011;21899;42.662;23.316;2023-11-21T01:05:24;31.75;;;16.70;;
35777;SDS011;21899;42.662;23.316;2023-11-21T01:07:50;39.22;;;17.23;;
35777;SDS011;21899;42.662;23.316;2023-11-21T01:10:15;27.50;;;15.63;;
35777;SDS011;21899;42.662;23.316;2023-11-21T01:12:42;31.90;;;16.02;;
35777;SDS011;21899;42.662;23.316;2023-11-21T01:15:08;44.75;;;22.60;;
35777;SDS011;21899;42.662;23.316;2023-11-21T01:17:33;40.00;;;20.73;;
35777;SDS011;21899;42.662;23.316;2023-11-21T01:19:59;44.47;;;23.50;;
35777;SDS011;21899;42.662;23.316;2023-11-21T01:22:26;35.17;;;19.48;;
35777;SDS011;21899;42.662;23.316;2023-11-21T01:24:54;41.10;;;21.92;;
35777;SDS011;21899;42.662;23.316;2023-11-21T01:27:21;40.75;;;20.63;;
35777;SDS011;21899;42.662;23.316;2023-11-21T01:29:46;47.10;;;21.67;;
35777;SDS011;21899;42.662;23.316;2023-11-21T01:32:11;32.55;;;17.55;;
35777;SDS011;21899;42.662;23.316;2023-11-21T01:34:37;34.70;;;16.05;;
35777;SDS011;21899;42.662;23.316;2023-11-21T01:37:03;37.60;;;17.20;;
35777;SDS011;21899;42.662;23.316;2023-11-21T01:39:30;30.52;;;15.88;;
35777;SDS011;21899;42.662;23.316;2023-11-21T01:41:56;34.80;;;17.83;;
35777;SDS011;21899;42.662;23.316;2023-11-21T01:44:23;37.13;;;18.45;;
35777;SDS011;21899;42.662;23.316;2023-11-21T01:46:49;39.33;;;18.38;;
35777;SDS011;21899;42.662;23.316;2023-11-21T01:49:15;45.40;;;19.88;;
35777;SDS011;21899;42.662;23.316;2023-11-21T01:51:43;40.65;;;18.92;;
35777;SDS011;21899;42.662;23.316;2023-11-21T01:54:12;33.67;;;18.40;;
35777;SDS011;21899;42.662;23.316;2023-11-21T01:56:38;32.50;;;18.15;;
35777;SDS011;21899;42.662;23.316;2023-11-21T01:59:04;31.73;;;17.20;;
35777;SDS011;21899;42.662;23.316;2023-11-21T02:01:32;31.27;;;17.58;;
35777;SDS011;21899;42.662;23.316;2023-11-21T02:03:58;37.22;;;18.38;;
35777;SDS011;21899;42.662;23.316;2023-11-21T02:06:23;39.03;;;19.77;;
35777;SDS011;21899;42.662;23.316;2023-11-21T02:08:49;37.63;;;19.08;;
35777;SDS011;21899;42.662;23.316;2023-11-21T02:11:15;38.15;;;18.77;;
35777;SDS011;21899;42.662;23.316;2023-11-21T02:13:41;35.92;;;17.17;;
35777;SDS011;21899;42.662;23.316;2023-11-21T02:16:10;34.75;;;16.95;;
35777;SDS011;21899;42.662;23.316;2023-11-21T02:18:37;34.35;;;17.98;;
35777;SDS011;21899;42.662;23.316;2023-11-21T02:21:04;36.15;;;17.85;;
35777;SDS011;21899;42.662;23.316;2023-11-21T02:23:30;45.78;;;18.10;;
35777;SDS011;21899;42.662;23.316;2023-11-21T02:25:55;31.67;;;16.77;;
35777;SDS011;21899;42.662;23.316;2023-11-21T02:28:21;39.38;;;17.17;;
35777;SDS011;21899;42.662;23.316;2023-11-21T02:30:51;37.30;;;17.58;;
35777;SDS011;21899;42.662;23.316;2023-11-21T02:33:21;30.67;;;16.05;;
35777;SDS011;21899;42.662;23.316;2023-11-21T02:35:46;30.95;;;15.43;;
35777;SDS011;21899;42.662;23.316;2023-11-21T02:38:12;31.30;;;15.60;;
35777;SDS011;21899;42.662;23.316;2023-11-21T02:40:38;37.75;;;17.25;;
35777;SDS011;21899;42.662;23.316;2023-11-21T02:43:04;38.47;;;16.10;;
35777;SDS011;21899;42.662;23.316;2023-11-21T02:45:30;34.58;;;16.55;;
35777;SDS011;21899;42.662;23.316;2023-11-21T02:47:56;29.52;;;15.32;;
35777;SDS011;21899;42.662;23.316;2023-11-21T02:50:22;31.92;;;15.15;;
35777;SDS011;21899;42.662;23.316;2023-11-21T02:52:48;32.40;;;16.75;;
35777;SDS011;21899;42.662;23.316;2023-11-21T02:55:14;30.52;;;16.80;;
35777;SDS011;21899;42.662;23.316;2023-11-21T02:57:39;32.45;;;17.45;;
35777;SDS011;21899;42.662;23.316;2023-11-21T03:00:05;35.80;;;16.52;;
35777;SDS011;21899;42.662;23.316;2023-11-21T03:02:32;32.72;;;16.50;;
35777;SDS011;21899;42.662;23.316;2023-11-21T03:05:01;30.30;;;16.35;;
35777;SDS011;21899;42.662;23.316;2023-11-21T03:07:27;31.08;;;17.27;;
35777;SDS011;21899;42.662;23.316;2023-11-21T03:09:53;34.25;;;17.20;;
35777;SDS011;21899;42.662;23.316;2023-11-21T03:12:18;32.58;;;17.98;;
35777;SDS011;21899;42.662;23.316;2023-11-21T03:14:44;40.42;;;17.42;;
35777;SDS011;21899;42.662;23.316;2023-11-21T03:17:10;38.38;;;17.05;;
35777;SDS011;21899;42.662;23.316;2023-11-21T03:19:36;34.17;;;16.35;;
35777;SDS011;21899;42.662;23.316;2023-11-21T03:22:02;38.65;;;17.95;;
35777;SDS011;21899;42.662;23.316;2023-11-21T03:24:29;34.40;;;17.98;;
35777;SDS011;21899;42.662;23.316;2023-11-21T03:26:54;36.13;;;16.65;;
35777;SDS011;21899;42.662;23.316;2023-11-21T03:29:20;29.20;;;16.20;;
35777;SDS011;21899;42.662;23.316;2023-11-21T03:31:45;33.58;;;17.15;;
35777;SDS011;21899;42.662;23.316;2023-11-21T03:34:14;29.02;;;16.75;;
35777;SDS011;21899;42.662;23.316;2023-11-21T03:36:41;40.90;;;19.30;;
35777;SDS011;21899;42.662;23.316;2023-11-21T03:39:07;41.38;;;19.20;;
35777;SDS011;21899;42.662;23.316;2023-11-21T03:41:32;43.10;;;20.27;;
35777;SDS011;21899;42.662;23.316;2023-11-21T03:43:59;39.72;;;19.20;;
35777;SDS011;21899;42.662;23.316;2023-11-21T03:46:24;39.55;;;20.00;;
35777;SDS011;21899;42.662;23.316;2023-11-21T03:48:50;45.75;;;20.23;;
35777;SDS011;21899;42.662;23.316;2023-11-21T03:51:16;36.13;;;20.48;;
35777;SDS011;21899;42.662;23.316;2023-11-21T03:53:41;44.42;;;21.08;;
35777;SDS011;21899;42.662;23.316;2023-11-21T03:56:07;39.55;;;20.52;;
35777;SDS011;21899;42.662;23.316;2023-11-21T03:58:32;40.28;;;21.70;;
35777;SDS011;21899;42.662;23.316;2023-11-21T04:00:58;41.83;;;21.58;;
35777;SDS011;21899;42.662;23.316;2023-11-21T04:03:23;38.85;;;22.33;;
35777;SDS011;21899;42.662;23.316;2023-11-21T04:05:48;51.75;;;28.13;;
35777;SDS011;21899;42.662;23.316;2023-11-21T04:08:14;70.38;;;38.08;;
35777;SDS011;21899;42.662;23.316;2023-11-21T04:10:39;60.10;;;34.30;;
35777;SDS011;21899;42.662;23.316;2023-11-21T04:13:05;60.65;;;33.83;;
35777;SDS011;21899;42.662;23.316;2023-11-21T04:15:31;59.83;;;30.98;;
35777;SDS011;21899;42.662;23.316;2023-11-21T04:17:57;60.33;;;31.67;;
35777;SDS011;21899;42.662;23.316;2023-11-21T04:20:25;57.53;;;32.75;;
35777;SDS011;21899;42.662;23.316;2023-11-21T04:22:50;63.95;;;37.10;;
35777;SDS011;21899;42.662;23.316;2023-11-21T04:25:16;72.13;;;38.10;;
35777;SDS011;21899;42.662;23.316;2023-11-21T04:27:43;72.53;;;38.85;;
35777;SDS011;21899;42.662;23.316;2023-11-21T04:30:09;72.82;;;40.22;;
35777;SDS011;21899;42.662;23.316;2023-11-21T04:32:36;83.63;;;47.28;;
35777;SDS011;21899;42.662;23.316;2023-11-21T04:35:01;76.25;;;42.90;;
35777;SDS011;21899;42.662;23.316;2023-11-21T04:37:27;63.95;;;38.00;;
35777;SDS011;21899;42.662;23.316;2023-11-21T04:39:52;63.15;;;34.75;;
35777;SDS011;21899;42.662;23.316;2023-11-21T04:42:18;63.67;;;36.22;;
35777;SDS011;21899;42.662;23.316;2023-11-21T04:44:43;57.42;;;33.53;;
35777;SDS011;21899;42.662;23.316;2023-11-21T04:47:09;66.90;;;36.30;;
35777;SDS011;21899;42.662;23.316;2023-11-21T04:49:35;53.80;;;31.90;;
35777;SDS011;21899;42.662;23.316;2023-11-21T04:52:00;56.00;;;31.60;;
35777;SDS011;21899;42.662;23.316;2023-11-21T04:54:26;61.28;;;33.03;;
35777;SDS011;21899;42.662;23.316;2023-11-21T04:56:52;47.38;;;28.85;;
35777;SDS011;21899;42.662;23.316;2023-11-21T04:59:17;49.60;;;28.77;;
35777;SDS011;21899;42.662;23.316;2023-11-21T05:01:43;50.58;;;30.50;;
35777;SDS011;21899;42.662;23.316;2023-11-21T05:04:09;49.17;;;27.27;;
35777;SDS011;21899;42.662;23.316;2023-11-21T05:06:34;50.13;;;28.90;;
35777;SDS011;21899;42.662;23.316;2023-11-21T05:09:00;45.60;;;28.00;;
35777;SDS011;21899;42.662;23.316;2023-11-21T05:11:26;46.00;;;26.33;;
35777;SDS011;21899;42.662;23.316;2023-11-21T05:13:52;44.92;;;22.08;;
35777;SDS011;21899;42.662;23.316;2023-11-21T05:16:18;33.72;;;15.30;;
35777;SDS011;21899;42.662;23.316;2023-11-21T05:18:45;31.52;;;18.40;;
35777;SDS011;21899;42.662;23.316;2023-11-21T05:21:11;39.25;;;20.83;;
35777;SDS011;21899;42.662;23.316;2023-11-21T05:23:36;39.67;;;21.80;;
35777;SDS011;21899;42.662;23.316;2023-11-21T05:26:02;39.67;;;20.00;;
35777;SDS011;21899;42.662;23.316;2023-11-21T05:28:28;42.72;;;22.75;;
35777;SDS011;21899;42.662;23.316;2023-11-21T05:30:53;46.17;;;24.00;;
35777;SDS011;21899;42.662;23.316;2023-11-21T05:33:19;42.35;;;21.58;;
35777;SDS011;21899;42.662;23.316;2023-11-21T05:35:45;38.40;;;21.55;;
35777;SDS011;21899;42.662;23.316;2023-11-21T05:38:11;48.85;;;22.23;;
35777;SDS011;21899;42.662;23.316;2023-11-21T05:40:37;38.00;;;21.95;;
35777;SDS011;21899;42.662;23.316;2023-11-21T05:43:02;45.38;;;21.23;;
35777;SDS011;21899;42.662;23.316;2023-11-21T05:45:28;42.15;;;21.25;;
35777;SDS011;21899;42.662;23.316;2023-11-21T05:47:54;32.97;;;19.13;;
35777;SDS011;21899;42.662;23.316;2023-11-21T05:50:20;38.83;;;18.33;;
35777;SDS011;21899;42.662;23.316;2023-11-21T05:52:46;38.40;;;20.00;;
35777;SDS011;21899;42.662;23.316;2023-11-21T05:55:13;40.22;;;20.10;;
35777;SDS011;21899;42.662;23.316;2023-11-21T05:57:39;35.90;;;18.52;;
35777;SDS011;21899;42.662;23.316;2023-11-21T06:00:06;43.17;;;19.30;;
35777;SDS011;21899;42.662;23.316;2023-11-21T06:02:40;32.17;;;18.98;;
35777;SDS011;21899;42.662;23.316;2023-11-21T06:05:06;27.77;;;12.65;;
35777;SDS011;21899;42.662;23.316;2023-11-21T06:07:33;30.50;;;14.43;;
35777;SDS011;21899;42.662;23.316;2023-11-21T06:09:58;21.80;;;13.63;;
35777;SDS011;21899;42.662;23.316;2023-11-21T06:12:24;27.33;;;14.68;;
35777;SDS011;21899;42.662;23.316;2023-11-21T06:14:50;24.45;;;13.38;;
35777;SDS011;21899;42.662;23.316;2023-11-21T06:17:16;28.98;;;15.10;;
35777;SDS011;21899;42.662;23.316;2023-11-21T06:19:42;24.38;;;13.25;;
35777;SDS011;21899;42.662;23.316;2023-11-21T06:22:10;27.65;;;12.63;;
35777;SDS011;21899;42.662;23.316;2023-11-21T06:24:36;26.48;;;12.50;;
35777;SDS011;21899;42.662;23.316;2023-11-21T06:27:03;31.88;;;13.10;;
35777;SDS011;21899;42.662;23.316;2023-11-21T06:29:29;38.50;;;13.32;;
35777;SDS011;21899;42.662;23.316;2023-11-21T06:31:55;36.08;;;14.27;;
35777;SDS011;21899;42.662;23.316;2023-11-21T06:34:20;26.27;;;13.02;;
35777;SDS011;21899;42.662;23.316;2023-11-21T06:36:46;21.50;;;10.35;;
35777;SDS011;21899;42.662;23.316;2023-11-21T06:39:12;23.30;;;10.50;;
35777;SDS011;21899;42.662;23.316;2023-11-21T06:41:40;197.88;;;69.88;;
35777;SDS011;21899;42.662;23.316;2023-11-21T06:44:05;33.95;;;15.70;;
35777;SDS011;21899;42.662;23.316;2023-11-21T06:46:31;29.20;;;14.77;;
35777;SDS011;21899;42.662;23.316;2023-11-21T06:48:56;31.17;;;13.90;;
35777;SDS011;21899;42.662;23.316;2023-11-21T06:51:22;25.02;;;10.70;;
35777;SDS011;21899;42.662;23.316;2023-11-21T06:53:47;18.35;;;9.23;;
35777;SDS011;21899;42.662;23.316;2023-11-21T06:56:19;32.15;;;12.07;;
35777;SDS011;21899;42.662;23.316;2023-11-21T06:58:45;26.23;;;11.65;;
35777;SDS011;21899;42.662;23.316;2023-11-21T07:01:11;24.67;;;11.13;;
35777;SDS011;21899;42.662;23.316;2023-11-21T07:03:38;28.67;;;14.45;;
35777;SDS011;21899;42.662;23.316;2023-11-21T07:06:04;30.95;;;15.50;;
35777;SDS011;21899;42.662;23.316;2023-11-21T07:08:29;27.20;;;15.23;;
35777;SDS011;21899;42.662;23.316;2023-11-21T07:10:55;32.55;;;14.98;;
35777;SDS011;21899;42.662;23.316;2023-11-21T07:13:20;29.30;;;14.93;;
35777;SDS011;21899;42.662;23.316;2023-11-21T07:15:46;34.30;;;14.80;;
35777;SDS011;21899;42.662;23.316;2023-11-21T07:18:12;25.23;;;14.25;;
35777;SDS011;21899;42.662;23.316;2023-11-21T07:20:38;30.67;;;15.15;;
35777;SDS011;21899;42.662;23.316;2023-11-21T07:23:03;30.33;;;14.77;;
35777;SDS011;21899;42.662;23.316;2023-11-21T07:25:29;35.35;;;15.10;;
35777;SDS011;21899;42.662;23.316;2023-11-21T07:27:55;27.67;;;14.55;;
35777;SDS011;21899;42.662;23.316;2023-11-21T07:30:21;37.40;;;15.30;;
35777;SDS011;21899;42.662;23.316;2023-11-21T07:32:47;34.33;;;16.13;;
35777;SDS011;21899;42.662;23.316;2023-11-21T07:35:13;36.13;;;15.80;;
35777;SDS011;21899;42.662;23.316;2023-11-21T07:37:39;32.00;;;15.73;;
35777;SDS011;21899;42.662;23.316;2023-11-21T07:40:06;29.08;;;15.38;;
35777;SDS011;21899;42.662;23.316;2023-11-21T07:42:33;27.48;;;15.77;;
35777;SDS011;21899;42.662;23.316;2023-11-21T07:44:59;36.97;;;16.40;;
35777;SDS011;21899;42.662;23.316;2023-11-21T07:47:25;30.83;;;14.90;;
35777;SDS011;21899;42.662;23.316;2023-11-21T07:49:52;28.35;;;15.07;;
35777;SDS011;21899;42.662;23.316;2023-11-21T07:52:20;33.45;;;15.73;;
35777;SDS011;21899;42.662;23.316;2023-11-21T07:54:46;41.58;;;16.92;;
35777;SDS011;21899;42.662;23.316;2023-11-21T07:57:11;35.60;;;16.33;;
35777;SDS011;21899;42.662;23.316;2023-11-21T07:59:38;32.60;;;16.50;;
35777;SDS011;21899;42.662;23.316;2023-11-21T08:02:07;29.88;;;14.55;;
35777;SDS011;21899;42.662;23.316;2023-11-21T08:04:32;40.28;;;16.80;;
35777;SDS011;21899;42.662;23.316;2023-11-21T08:07:00;31.35;;;16.33;;
35777;SDS011;21899;42.662;23.316;2023-11-21T08:09:26;33.83;;;15.75;;
35777;SDS011;21899;42.662;23.316;2023-11-21T08:11:52;33.20;;;17.08;;
35777;SDS011;21899;42.662;23.316;2023-11-21T08:14:18;29.50;;;15.35;;
35777;SDS011;21899;42.662;23.316;2023-11-21T08:16:43;42.92;;;16.52;;
35777;SDS011;21899;42.662;23.316;2023-11-21T08:19:09;37.40;;;17.55;;
35777;SDS011;21899;42.662;23.316;2023-11-21T08:21:36;36.97;;;17.58;;
35777;SDS011;21899;42.662;23.316;2023-11-21T08:24:02;39.78;;;17.00;;
35777;SDS011;21899;42.662;23.316;2023-11-21T08:26:29;29.90;;;16.05;;
35777;SDS011;21899;42.662;23.316;2023-11-21T08:28:55;37.13;;;18.05;;
35777;SDS011;21899;42.662;23.316;2023-11-21T08:31:27;36.45;;;16.73;;
35777;SDS011;21899;42.662;23.316;2023-11-21T08:33:54;31.92;;;16.35;;
35777;SDS011;21899;42.662;23.316;2023-11-21T08:36:20;37.13;;;15.75;;
35777;SDS011;21899;42.662;23.316;2023-11-21T08:38:48;29.75;;;15.50;;
35777;SDS011;21899;42.662;23.316;2023-11-21T08:41:14;30.85;;;15.60;;
35777;SDS011;21899;42.662;23.316;2023-11-21T08:43:39;34.63;;;17.40;;
35777;SDS011;21899;42.662;23.316;2023-11-21T08:46:08;31.45;;;15.70;;
35777;SDS011;21899;42.662;23.316;2023-11-21T08:48:35;31.05;;;15.52;;
35777;SDS011;21899;42.662;23.316;2023-11-21T08:51:01;31.88;;;16.63;;
35777;SDS011;21899;42.662;23.316;2023-11-21T08:53:26;29.65;;;15.43;;
35777;SDS011;21899;42.662;23.316;2023-11-21T08:55:52;28.60;;;15.50;;
35777;SDS011;21899;42.662;23.316;2023-11-21T08:58:19;29.30;;;14.95;;
35777;SDS011;21899;42.662;23.316;2023-11-21T09:00:44;26.40;;;13.95;;
35777;SDS011;21899;42.662;23.316;2023-11-21T09:03:11;27.25;;;13.82;;
35777;SDS011;21899;42.662;23.316;2023-11-21T09:05:38;27.60;;;14.40;;
35777;SDS011;21899;42.662;23.316;2023-11-21T09:08:04;26.52;;;14.63;;
35777;SDS011;21899;42.662;23.316;2023-11-21T09:10:30;35.15;;;15.20;;
35777;SDS011;21899;42.662;23.316;2023-11-21T09:12:55;33.60;;;16.15;;
35777;SDS011;21899;42.662;23.316;2023-11-21T09:15:22;33.63;;;14.88;;
35777;SDS011;21899;42.662;23.316;2023-11-21T09:17:47;28.38;;;15.38;;
35777;SDS011;21899;42.662;23.316;2023-11-21T09:20:13;31.70;;;14.77;;
35777;SDS011;21899;42.662;23.316;2023-11-21T09:22:40;34.92;;;15.35;;
35777;SDS011;21899;42.662;23.316;2023-11-21T09:25:05;27.42;;;12.65;;
35777;SDS011;21899;42.662;23.316;2023-11-21T09:27:33;27.13;;;13.25;;
35777;SDS011;21899;42.662;23.316;2023-11-21T09:30:00;26.33;;;13.43;;
35777;SDS011;21899;42.662;23.316;2023-11-21T09:32:26;23.02;;;12.82;;
35777;SDS011;21899;42.662;23.316;2023-11-21T09:34:51;30.23;;;14.20;;
35777;SDS011;21899;42.662;23.316;2023-11-21T09:37:18;28.80;;;13.23;;
35777;SDS011;21899;42.662;23.316;2023-11-21T09:39:44;25.75;;;14.05;;
35777;SDS011;21899;42.662;23.316;2023-11-21T09:42:13;26.98;;;13.88;;
35777;SDS011;21899;42.662;23.316;2023-11-21T09:44:57;31.67;;;14.85;;
35777;SDS011;21899;42.662;23.316;2023-11-21T09:47:29;28.00;;;15.00;;
35777;SDS011;21899;42.662;23.316;2023-11-21T09:49:55;31.85;;;16.10;;
35777;SDS011;21899;42.662;23.316;2023-11-21T09:52:22;29.35;;;16.25;;
35777;SDS011;21899;42.662;23.316;2023-11-21T09:54:51;26.65;;;15.10;;
35777;SDS011;21899;42.662;23.316;2023-11-21T09:57:19;30.23;;;15.05;;
35777;SDS011;21899;42.662;23.316;2023-11-21T09:59:46;29.73;;;15.35;;
35777;SDS011;21899;42.662;23.316;2023-11-21T10:02:15;28.80;;;14.90;;
35777;SDS011;21899;42.662;23.316;2023-11-21T10:04:43;27.98;;;15.98;;
35777;SDS011;21899;42.662;23.316;2023-11-21T10:07:10;36.13;;;15.57;;
35777;SDS011;21899;42.662;23.316;2023-11-21T10:09:37;31.15;;;15.30;;
35777;SDS011;21899;42.662;23.316;2023-11-21T10:12:03;24.80;;;14.05;;
35777;SDS011;21899;42.662;23.316;2023-11-21T10:14:33;27.45;;;13.43;;
35777;SDS011;21899;42.662;23.316;2023-11-21T10:17:02;24.00;;;13.90;;
35777;SDS011;21899;42.662;23.316;2023-11-21T10:19:28;28.33;;;14.40;;
35777;SDS011;21899;42.662;23.316;2023-11-21T10:21:54;27.80;;;13.98;;
35777;SDS011;21899;42.662;23.316;2023-11-21T10:24:22;27.13;;;14.65;;
35777;SDS011;21899;42.662;23.316;2023-11-21T10:26:48;26.30;;;14.57;;
35777;SDS011;21899;42.662;23.316;2023-11-21T10:29:13;26.98;;;14.65;;
35777;SDS011;21899;42.662;23.316;2023-11-21T10:31:42;30.42;;;16.63;;
35777;SDS011;21899;42.662;23.316;2023-11-21T10:34:17;30.30;;;16.08;;
35777;SDS011;21899;42.662;23.316;2023-11-21T10:36:43;31.83;;;18.17;;
35777;SDS011;21899;42.662;23.316;2023-11-21T10:39:13;45.65;;;24.33;;
35777;SDS011;21899;42.662;23.316;2023-11-21T10:41:43;49.05;;;25.05;;
35777;SDS011;21899;42.662;23.316;2023-11-21T10:44:10;38.75;;;22.92;;
35777;SDS011;21899;42.662;23.316;2023-11-21T10:46:36;50.38;;;25.42;;
35777;SDS011;21899;42.662;23.316;2023-11-21T10:49:01;43.60;;;24.10;;
35777;SDS011;21899;42.662;23.316;2023-11-21T10:51:27;35.45;;;21.10;;
35777;SDS011;21899;42.662;23.316;2023-11-21T10:53:53;41.55;;;24.60;;
35777;SDS011;21899;42.662;23.316;2023-11-21T10:56:19;39.17;;;24.15;;
35777;SDS011;21899;42.662;23.316;2023-11-21T10:58:48;45.63;;;26.23;;
35777;SDS011;21899;42.662;23.316;2023-11-21T11:01:17;42.15;;;25.58;;
35777;SDS011;21899;42.662;23.316;2023-11-21T11:03:43;41.63;;;23.55;;
35777;SDS011;21899;42.662;23.316;2023-11-21T11:06:10;35.53;;;21.83;;
35777;SDS011;21899;42.662;23.316;2023-11-21T11:08:38;38.42;;;19.35;;
35777;SDS011;21899;42.662;23.316;2023-11-21T11:11:05;30.50;;;20.02;;
35777;SDS011;21899;42.662;23.316;2023-11-21T11:13:31;37.42;;;19.95;;
35777;SDS011;21899;42.662;23.316;2023-11-21T11:16:00;34.00;;;20.60;;
35777;SDS011;21899;42.662;23.316;2023-11-21T11:18:32;38.88;;;19.85;;
35777;SDS011;21899;42.662;23.316;2023-11-21T11:23:54;43.03;;;20.13;;
35777;SDS011;21899;42.662;23.316;2023-11-21T11:38:03;35.58;;;20.42;;
35777;SDS011;21899;42.662;23.316;2023-11-21T11:40:41;37.75;;;20.33;;
35777;SDS011;21899;42.662;23.316;2023-11-21T11:43:10;35.63;;;19.25;;
35777;SDS011;21899;42.662;23.316;2023-11-21T11:45:36;34.50;;;20.58;;
35777;SDS011;21899;42.662;23.316;2023-11-21T11:48:06;35.72;;;18.23;;
35777;SDS011;21899;42.662;23.316;2023-11-21T11:50:33;26.92;;;15.70;;
35777;SDS011;21899;42.662;23.316;2023-11-21T11:53:17;31.23;;;14.60;;
35777;SDS011;21899;42.662;23.316;2023-11-21T11:55:44;21.63;;;14.20;;
35777;SDS011;21899;42.662;23.316;2023-11-21T11:58:10;22.88;;;13.23;;
35777;SDS011;21899;42.662;23.316;2023-11-21T12:00:36;21.75;;;11.95;;
35777;SDS011;21899;42.662;23.316;2023-11-21T12:03:06;26.02;;;15.20;;
35777;SDS011;21899;42.662;23.316;2023-11-21T12:05:34;29.00;;;16.27;;
35777;SDS011;21899;42.662;23.316;2023-11-21T12:08:10;27.70;;;17.48;;
35777;SDS011;21899;42.662;23.316;2023-11-21T12:10:37;30.65;;;19.63;;
35777;SDS011;21899;42.662;23.316;2023-11-21T12:13:08;37.13;;;20.13;;
35777;SDS011;21899;42.662;23.316;2023-11-21T12:15:35;37.70;;;21.80;;
35777;SDS011;21899;42.662;23.316;2023-11-21T12:18:01;34.45;;;21.35;;
35777;SDS011;21899;42.662;23.316;2023-11-21T12:20:27;35.58;;;22.52;;
35777;SDS011;21899;42.662;23.316;2023-11-21T12:22:54;37.85;;;21.55;;
35777;SDS011;21899;42.662;23.316;2023-11-21T12:25:22;45.70;;;21.08;;
35777;SDS011;21899;42.662;23.316;2023-11-21T12:27:49;38.13;;;22.52;;
35777;SDS011;21899;42.662;23.316;2023-11-21T12:30:17;37.55;;;23.55;;
35777;SDS011;21899;42.662;23.316;2023-11-21T12:32:44;42.70;;;23.60;;
35777;SDS011;21899;42.662;23.316;2023-11-21T12:35:12;34.33;;;21.73;;
35777;SDS011;21899;42.662;23.316;2023-11-21T12:37:39;37.13;;;22.63;;
35777;SDS011;21899;42.662;23.316;2023-11-21T12:40:08;42.45;;;23.48;;
35777;SDS011;21899;42.662;23.316;2023-11-21T12:42:37;47.97;;;24.05;;
35777;SDS011;21899;42.662;23.316;2023-11-21T12:45:07;45.55;;;25.52;;
35777;SDS011;21899;42.662;23.316;2023-11-21T12:47:46;44.83;;;25.92;;
35777;SDS011;21899;42.662;23.316;2023-11-21T12:50:11;44.63;;;23.15;;
35777;SDS011;21899;42.662;23.316;2023-11-21T12:52:42;46.75;;;24.92;;
35777;SDS011;21899;42.662;23.316;2023-11-21T12:55:16;45.90;;;25.95;;
35777;SDS011;21899;42.662;23.316;2023-11-21T12:57:43;53.92;;;26.83;;
35777;SDS011;21899;42.662;23.316;2023-11-21T13:00:10;50.95;;;26.90;;
35777;SDS011;21899;42.662;23.316;2023-11-21T13:02:41;46.33;;;26.35;;
35777;SDS011;21899;42.662;23.316;2023-11-21T13:05:08;47.63;;;25.55;;
35777;SDS011;21899;42.662;23.316;2023-11-21T13:07:43;45.97;;;25.58;;
35777;SDS011;21899;42.662;23.316;2023-11-21T13:10:16;47.20;;;26.08;;
35777;SDS011;21899;42.662;23.316;2023-11-21T13:12:45;44.78;;;25.35;;
35777;SDS011;21899;42.662;23.316;2023-11-21T13:15:14;46.20;;;25.52;;
35777;SDS011;21899;42.662;23.316;2023-11-21T13:17:42;51.50;;;27.02;;
35777;SDS011;21899;42.662;23.316;2023-11-21T13:20:10;47.22;;;26.42;;
35777;SDS011;21899;42.662;23.316;2023-11-21T13:22:45;49.95;;;25.65;;
35777;SDS011;21899;42.662;23.316;2023-11-21T13:25:24;48.47;;;26.17;;
35777;SDS011;21899;42.662;23.316;2023-11-21T13:27:59;44.97;;;26.83;;
35777;SDS011;21899;42.662;23.316;2023-11-21T13:30:26;46.65;;;26.98;;
35777;SDS011;21899;42.662;23.316;2023-11-21T13:32:53;52.47;;;28.73;;
35777;SDS011;21899;42.662;23.316;2023-11-21T13:35:22;42.72;;;25.08;;
35777;SDS011;21899;42.662;23.316;2023-11-21T13:38:02;48.63;;;26.90;;
35777;SDS011;21899;42.662;23.316;2023-11-21T13:40:31;43.42;;;27.55;;
35777;SDS011;21899;42.662;23.316;2023-11-21T13:42:59;41.38;;;25.10;;
35777;SDS011;21899;42.662;23.316;2023-11-21T13:45:29;45.42;;;27.63;;
35777;SDS011;21899;42.662;23.316;2023-11-21T13:47:54;51.72;;;28.50;;
35777;SDS011;21899;42.662;23.316;2023-11-21T13:50:26;44.95;;;28.23;;
35777;SDS011;21899;42.662;23.316;2023-11-21T13:52:58;50.08;;;29.20;;
35777;SDS011;21899;42.662;23.316;2023-11-21T13:55:28;44.88;;;26.65;;
35777;SDS011;21899;42.662;23.316;2023-11-21T13:57:53;43.25;;;27.25;;
35777;SDS011;21899;42.662;23.316;2023-11-21T14:00:19;47.97;;;28.45;;
35777;SDS011;21899;42.662;23.316;2023-11-21T14:03:03;42.72;;;26.55;;
35777;SDS011;21899;42.662;23.316;2023-11-21T14:05:33;42.40;;;26.25;;
35777;SDS011;21899;42.662;23.316;2023-11-21T14:07:59;47.63;;;28.92;;
35777;SDS011;21899;42.662;23.316;2023-11-21T14:10:32;48.90;;;28.52;;
35777;SDS011;21899;42.662;23.316;2023-11-21T14:13:11;48.00;;;27.95;;
35777;SDS011;21899;42.662;23.316;2023-11-21T14:15:38;52.67;;;27.90;;
35777;SDS011;21899;42.662;23.316;2023-11-21T14:18:07;48.45;;;28.00;;
35777;SDS011;21899;42.662;23.316;2023-11-21T14:20:36;47.70;;;29.00;;
35777;SDS011;21899;42.662;23.316;2023-11-21T14:23:02;46.90;;;28.08;;